createdAt,value
2022-11-17T00:04:16.608Z,21.15
2022-11-17T00:09:20.509Z,23.38
2022-11-17T00:14:34.125Z,25.57
2022-11-17T00:19:54.899Z,22.10
2022-11-17T00:24:58.295Z,23.50
2022-11-17T00:30:03.269Z,21.73
2022-11-17T00:35:08.431Z,28.10
2022-11-17T00:40:12.762Z,20.83
2022-11-17T00:45:17.590Z,20.58
2022-11-17T00:55:24.212Z,24.95
2022-11-17T01:00:29.159Z,22.50
2022-11-17T01:05:33.256Z,23.40
2022-11-17T01:10:36.972Z,20.92
2022-11-17T01:15:41.643Z,20.05
2022-11-17T01:20:45.209Z,26.40
2022-11-17T01:25:48.745Z,22.75
2022-11-17T01:31:00.594Z,23.58
2022-11-17T01:36:04.925Z,24.67
2022-11-17T01:41:13.702Z,22.85
2022-11-17T01:46:30.639Z,24.00
2022-11-17T01:51:37.393Z,24.70
2022-11-17T01:56:46.041Z,21.23
2022-11-17T02:01:56.931Z,23.40
2022-11-17T02:07:04.808Z,25.10
2022-11-17T02:12:10.616Z,22.50
2022-11-17T02:17:15.716Z,23.90
2022-11-17T02:22:41.801Z,27.65
2022-11-17T02:28:06.211Z,24.00
2022-11-17T02:33:17.891Z,24.20
2022-11-17T02:38:33.148Z,24.83
2022-11-17T02:44:02.356Z,27.25
2022-11-17T02:49:10.041Z,24.67
2022-11-17T02:54:14.033Z,27.45
2022-11-17T02:59:23.234Z,22.52
2022-11-17T03:04:32.832Z,22.58
2022-11-17T03:09:47.824Z,24.30
2022-11-17T03:15:03.330Z,26.17
2022-11-17T03:20:15.421Z,22.85
2022-11-17T03:25:22.126Z,23.13
2022-11-17T03:30:33.276Z,22.65
2022-11-17T03:35:49.317Z,23.73
2022-11-17T03:40:57.661Z,24.17
2022-11-17T03:46:07.124Z,21.88
2022-11-17T03:51:14.658Z,23.33
2022-11-17T03:56:36.635Z,21.55
2022-11-17T04:01:41.892Z,25.35
2022-11-17T04:06:45.376Z,22.80
2022-11-17T04:12:08.234Z,24.17
2022-11-17T04:17:13.165Z,22.00
2022-11-17T04:22:16.360Z,24.20
2022-11-17T04:27:37.355Z,23.85
2022-11-17T04:32:42.034Z,23.80
2022-11-17T04:37:45.495Z,27.25
2022-11-17T04:42:48.866Z,24.10
2022-11-17T04:47:53.554Z,25.67
2022-11-17T04:52:56.996Z,25.48
2022-11-17T04:58:00.562Z,25.23
2022-11-17T05:03:05.231Z,24.58
2022-11-17T05:08:08.509Z,23.70
2022-11-17T05:13:25.421Z,20.00
2022-11-17T05:18:30.314Z,20.00
2022-11-17T05:23:50.955Z,19.83
2022-11-17T05:28:55.723Z,25.02
2022-11-17T05:39:05.084Z,18.45
2022-11-17T05:44:08.531Z,16.35
2022-11-17T05:49:13.472Z,16.15
2022-11-17T05:54:16.898Z,15.07
2022-11-17T05:59:27.987Z,14.27
2022-11-17T06:04:33.736Z,15.27
2022-11-17T06:09:40.831Z,9.07
2022-11-17T06:14:44.493Z,13.05
2022-11-17T06:19:53.685Z,15.63
2022-11-17T06:24:58.216Z,9.32
2022-11-17T06:30:03.518Z,11.98
2022-11-17T06:35:11.604Z,12.10
2022-11-17T06:40:15.387Z,12.32
2022-11-17T06:45:18.868Z,10.63
2022-11-17T06:50:23.800Z,25.63
2022-11-17T07:00:31.504Z,21.77
2022-11-17T07:05:40.325Z,24.50
2022-11-17T07:10:49.145Z,22.05
2022-11-17T07:15:53.502Z,22.20
2022-11-17T07:21:03.253Z,23.13
2022-11-17T07:26:07.323Z,29.55
2022-11-17T07:31:11.183Z,33.77
2022-11-17T07:36:16.828Z,30.38
2022-11-17T07:41:20.399Z,27.73
2022-11-17T07:46:23.753Z,31.55
2022-11-17T07:51:28.499Z,33.58
2022-11-17T07:56:32.189Z,36.70
2022-11-17T08:01:35.708Z,34.03
2022-11-17T08:06:40.806Z,33.10
2022-11-17T08:11:44.235Z,32.33
2022-11-17T08:16:47.804Z,30.35
2022-11-17T08:21:52.838Z,32.80
2022-11-17T08:26:57.081Z,33.65
2022-11-17T08:32:00.405Z,33.60
2022-11-17T08:37:05.353Z,33.45
2022-11-17T08:47:12.092Z,30.75
2022-11-17T08:52:16.933Z,33.50
2022-11-17T09:02:26.444Z,31.25
2022-11-17T09:07:34.986Z,35.67
2022-11-17T09:12:38.736Z,32.05
2022-11-17T09:17:43.714Z,45.88
2022-11-17T09:22:48.643Z,30.77
2022-11-17T09:32:55.959Z,27.38
2022-11-17T09:38:02.261Z,29.15
2022-11-17T09:43:10.181Z,25.05
2022-11-17T09:48:40.372Z,24.00
2022-11-17T09:53:52.149Z,22.52
2022-11-17T09:59:00.249Z,26.38
2022-11-17T10:04:03.544Z,22.25
2022-11-17T10:09:24.053Z,22.42
2022-11-17T10:14:30.378Z,22.63
2022-11-17T10:24:42.432Z,20.05
2022-11-17T10:29:58.016Z,18.45
2022-11-17T10:35:16.081Z,15.35
2022-11-17T10:40:25.584Z,12.77
2022-11-17T10:45:29.965Z,13.93
2022-11-17T10:50:33.330Z,11.57
2022-11-17T10:55:39.528Z,12.55
2022-11-17T11:00:44.749Z,12.23
2022-11-17T11:06:07.378Z,8.77
2022-11-17T11:11:19.477Z,8.50
2022-11-17T11:16:23.225Z,7.72
2022-11-17T11:21:47.207Z,7.85
2022-11-17T11:27:05.463Z,6.55
2022-11-17T11:32:21.818Z,8.05
2022-11-17T11:37:31.077Z,7.80
2022-11-17T11:42:47.166Z,10.00
2022-11-17T11:48:08.584Z,9.63
2022-11-17T11:53:19.860Z,9.48
2022-11-17T11:58:26.167Z,8.80
2022-11-17T12:03:36.024Z,8.10
2022-11-17T12:08:49.669Z,8.60
2022-11-17T12:13:55.568Z,6.68
2022-11-17T12:18:59.234Z,7.63
2022-11-17T12:24:16.285Z,7.53
2022-11-17T12:29:35.357Z,6.88
2022-11-17T12:34:39.442Z,7.88
2022-11-17T12:40:30.433Z,6.13
2022-11-17T12:45:56.015Z,6.63
2022-11-17T12:51:06.381Z,7.68
2022-11-17T12:57:00.403Z,6.07
2022-11-17T13:02:23.533Z,5.63
2022-11-17T13:07:28.226Z,4.80
2022-11-17T13:17:43.326Z,5.82
2022-11-17T13:23:00.380Z,7.95
2022-11-17T13:28:05.568Z,9.30
2022-11-17T13:33:12.173Z,5.80
2022-11-17T13:38:21.144Z,6.55
2022-11-17T13:43:26.942Z,7.10
2022-11-17T13:48:36.894Z,7.75
2022-11-17T13:53:44.512Z,6.55
2022-11-17T13:58:50.528Z,6.03
2022-11-17T14:04:19.590Z,4.78
2022-11-17T14:09:23.963Z,4.85
2022-11-17T14:14:35.525Z,5.20
2022-11-17T14:19:40.358Z,4.68
2022-11-17T14:24:45.347Z,4.75
2022-11-17T14:29:48.736Z,5.90
2022-11-17T14:34:53.521Z,5.32
2022-11-17T14:39:57.066Z,6.18
2022-11-17T14:45:00.494Z,7.45
2022-11-17T14:50:05.524Z,6.57
2022-11-17T14:55:09.740Z,8.00
2022-11-17T15:00:19.935Z,7.00
2022-11-17T15:05:26.403Z,8.37
2022-11-17T15:10:29.923Z,6.38
2022-11-17T15:15:33.301Z,7.43
2022-11-17T15:20:38.264Z,7.10
2022-11-17T15:25:41.467Z,6.60
2022-11-17T15:30:44.983Z,8.15
2022-11-17T15:35:49.946Z,6.43
2022-11-17T15:40:54.971Z,6.75
2022-11-17T15:46:02.624Z,8.13
2022-11-17T15:51:09.472Z,8.87
2022-11-17T15:56:14.025Z,7.47
2022-11-17T16:01:26.412Z,7.07
2022-11-17T16:06:32.563Z,9.43
2022-11-17T16:11:36.830Z,5.40
2022-11-17T16:16:40.905Z,6.72
2022-11-17T16:21:46.049Z,6.77
2022-11-17T16:26:49.724Z,7.47
2022-11-17T16:31:53.331Z,4.80
2022-11-17T16:36:58.483Z,5.33
2022-11-17T16:42:02.070Z,5.15
2022-11-17T16:47:05.561Z,4.80
2022-11-17T16:52:10.397Z,4.85
2022-11-17T16:57:14.012Z,5.95
2022-11-17T17:02:17.215Z,5.40
2022-11-17T17:07:22.154Z,5.95
2022-11-17T17:12:26.214Z,5.27
2022-11-17T17:17:29.844Z,5.15
2022-11-17T17:22:34.853Z,5.83
2022-11-17T17:27:38.437Z,5.75
2022-11-17T17:32:41.677Z,5.35
2022-11-17T17:37:46.365Z,6.70
2022-11-17T17:47:52.835Z,6.90
2022-11-17T17:52:57.694Z,6.65
2022-11-17T17:58:01.233Z,6.82
2022-11-17T18:03:04.689Z,5.70
2022-11-17T18:08:09.878Z,5.93
2022-11-17T18:13:13.150Z,6.30
2022-11-17T18:18:16.846Z,5.03
2022-11-17T18:23:21.597Z,5.27
2022-11-17T18:33:29.371Z,5.35
2022-11-17T18:38:34.895Z,6.32
2022-11-17T18:43:39.163Z,4.47
2022-11-17T18:48:44.496Z,4.82
2022-11-17T18:53:49.758Z,4.80
2022-11-17T18:58:53.967Z,5.80
2022-11-17T19:04:01.089Z,5.43
2022-11-17T19:09:06.478Z,6.47
2022-11-17T19:14:09.703Z,5.75
2022-11-17T19:19:14.749Z,7.28
2022-11-17T19:24:20.058Z,4.10
2022-11-17T19:29:23.702Z,6.97
2022-11-17T19:34:27.306Z,6.93
2022-11-17T19:39:32.084Z,6.65
2022-11-17T19:44:35.318Z,4.63
2022-11-17T19:49:38.981Z,5.90
2022-11-17T19:54:43.633Z,6.93
2022-11-17T19:59:46.928Z,5.63
2022-11-17T20:04:50.263Z,6.00
2022-11-17T20:09:55.254Z,5.40
2022-11-17T20:14:58.795Z,7.40
2022-11-17T20:20:02.249Z,5.87
2022-11-17T20:30:15.352Z,6.30
2022-11-17T20:35:18.957Z,7.33
2022-11-17T20:40:23.908Z,7.35
2022-11-17T20:45:27.377Z,5.80
2022-11-17T20:50:32.329Z,6.37
2022-11-17T20:55:37.169Z,7.93
2022-11-17T21:00:40.696Z,6.73
2022-11-17T21:05:44.222Z,7.80
2022-11-17T21:10:49.098Z,7.70
2022-11-17T21:16:07.307Z,7.30
2022-11-17T21:21:11.568Z,7.00
2022-11-17T21:26:18.162Z,5.47
2022-11-17T21:31:23.958Z,7.47
2022-11-17T21:36:28.942Z,8.95
2022-11-17T21:41:36.409Z,7.68
2022-11-17T21:46:39.611Z,5.65
2022-11-17T21:51:43.062Z,5.00
2022-11-17T21:56:47.967Z,6.77
2022-11-17T22:01:51.209Z,6.30
2022-11-17T22:06:54.748Z,8.93
2022-11-17T22:11:59.444Z,6.23
2022-11-17T22:22:06.345Z,6.50
2022-11-17T22:27:11.219Z,6.20
2022-11-17T22:32:14.394Z,6.53
2022-11-17T22:37:17.867Z,5.50
2022-11-17T22:42:22.620Z,6.77
2022-11-17T22:52:29.019Z,6.50
2022-11-17T22:57:33.858Z,6.53
2022-11-17T23:02:37.418Z,6.63
2022-11-17T23:07:41.074Z,6.60
2022-11-17T23:12:45.730Z,6.10
2022-11-17T23:22:54.153Z,7.17
2022-11-17T23:27:59.049Z,6.18
2022-11-17T23:33:02.435Z,7.73
2022-11-17T23:38:06.026Z,7.67
2022-11-17T23:43:10.537Z,6.90
2022-11-17T23:48:13.981Z,5.72
2022-11-17T23:53:17.201Z,9.03
2022-11-17T23:58:22.090Z,6.67
